sensor_id;sensor_type;location;lat;lon;timestamp;P1;durP1;ratioP1;P2;durP2;ratioP2
69347;SDS011;56497;45.058;41.926;2022-07-11T00:00:22;11.48;;;4.20;;
69347;SDS011;56497;45.058;41.926;2022-07-11T00:00:54;10.82;;;4.25;;
69347;SDS011;56497;45.058;41.926;2022-07-11T00:01:24;9.98;;;4.40;;
69347;SDS011;56497;45.058;41.926;2022-07-11T00:01:54;12.80;;;4.38;;
69347;SDS011;56497;45.058;41.926;2022-07-11T00:02:26;12.07;;;4.30;;
69347;SDS011;56497;45.058;41.926;2022-07-11T00:02:56;10.88;;;4.25;;
69347;SDS011;56497;45.058;41.926;2022-07-11T00:03:27;11.98;;;4.35;;
69347;SDS011;56497;45.058;41.926;2022-07-11T00:03:58;12.95;;;4.97;;
69347;SDS011;56497;45.058;41.926;2022-07-11T00:04:29;12.68;;;4.70;;
69347;SDS011;56497;45.058;41.926;2022-07-11T00:05:00;12.27;;;4.32;;
69347;SDS011;56497;45.058;41.926;2022-07-11T00:05:32;12.13;;;4.45;;
69347;SDS011;56497;45.058;41.926;2022-07-11T00:06:02;13.10;;;4.53;;
69347;SDS011;56497;45.058;41.926;2022-07-11T00:06:33;12.18;;;4.40;;
69347;SDS011;56497;45.058;41.926;2022-07-11T00:07:03;11.30;;;4.40;;
69347;SDS011;56497;45.058;41.926;2022-07-11T00:07:33;10.63;;;4.00;;
69347;SDS011;56497;45.058;41.926;2022-07-11T00:08:04;13.38;;;4.50;;
69347;SDS011;56497;45.058;41.926;2022-07-11T00:08:36;13.73;;;4.72;;
69347;SDS011;56497;45.058;41.926;2022-07-11T00:09:07;10.63;;;4.30;;
69347;SDS011;56497;45.058;41.926;2022-07-11T00:09:37;11.30;;;4.68;;
69347;SDS011;56497;45.058;41.926;2022-07-11T00:10:08;12.57;;;4.35;;
69347;SDS011;56497;45.058;41.926;2022-07-11T00:10:38;11.35;;;4.45;;
69347;SDS011;56497;45.058;41.926;2022-07-11T00:11:09;8.93;;;3.90;;
69347;SDS011;56497;45.058;41.926;2022-07-11T00:11:39;15.10;;;4.25;;
69347;SDS011;56497;45.058;41.926;2022-07-11T00:12:10;12.05;;;4.32;;
69347;SDS011;56497;45.058;41.926;2022-07-11T00:12:41;13.73;;;4.57;;
69347;SDS011;56497;45.058;41.926;2022-07-11T00:13:12;13.43;;;4.43;;
69347;SDS011;56497;45.058;41.926;2022-07-11T00:13:42;9.88;;;4.38;;
69347;SDS011;56497;45.058;41.926;2022-07-11T00:14:13;10.73;;;4.20;;
69347;SDS011;56497;45.058;41.926;2022-07-11T00:14:43;11.55;;;3.95;;
69347;SDS011;56497;45.058;41.926;2022-07-11T00:15:13;11.07;;;4.40;;
69347;SDS011;56497;45.058;41.926;2022-07-11T00:15:44;14.82;;;4.50;;
69347;SDS011;56497;45.058;41.926;2022-07-11T00:16:14;12.55;;;4.47;;
69347;SDS011;56497;45.058;41.926;2022-07-11T00:16:45;11.88;;;4.43;;
69347;SDS011;56497;45.058;41.926;2022-07-11T00:17:15;12.20;;;4.50;;
69347;SDS011;56497;45.058;41.926;2022-07-11T00:17:48;9.45;;;4.15;;
69347;SDS011;56497;45.058;41.926;2022-07-11T00:18:19;12.07;;;4.40;;
69347;SDS011;56497;45.058;41.926;2022-07-11T00:18:49;12.15;;;4.30;;
69347;SDS011;56497;45.058;41.926;2022-07-11T00:19:20;11.93;;;4.60;;
69347;SDS011;56497;45.058;41.926;2022-07-11T00:19:50;10.05;;;4.30;;
69347;SDS011;56497;45.058;41.926;2022-07-11T00:20:21;13.88;;;4.80;;
69347;SDS011;56497;45.058;41.926;2022-07-11T00:20:51;8.55;;;4.13;;
69347;SDS011;56497;45.058;41.926;2022-07-11T00:21:21;10.55;;;4.43;;
69347;SDS011;56497;45.058;41.926;2022-07-11T00:21:52;9.85;;;4.03;;
69347;SDS011;56497;45.058;41.926;2022-07-11T00:22:22;11.32;;;4.30;;
69347;SDS011;56497;45.058;41.926;2022-07-11T00:22:53;10.50;;;4.40;;
69347;SDS011;56497;45.058;41.926;2022-07-11T00:23:23;11.30;;;4.30;;
69347;SDS011;56497;45.058;41.926;2022-07-11T00:23:53;12.88;;;4.78;;
69347;SDS011;56497;45.058;41.926;2022-07-11T00:24:24;10.82;;;4.50;;
69347;SDS011;56497;45.058;41.926;2022-07-11T00:24:55;11.95;;;4.25;;
69347;SDS011;56497;45.058;41.926;2022-07-11T00:25:25;13.73;;;4.60;;
69347;SDS011;56497;45.058;41.926;2022-07-11T00:25:55;11.13;;;4.28;;
69347;SDS011;56497;45.058;41.926;2022-07-11T00:26:26;11.20;;;4.35;;
69347;SDS011;56497;45.058;41.926;2022-07-11T00:26:56;11.23;;;4.38;;
69347;SDS011;56497;45.058;41.926;2022-07-11T00:27:26;12.80;;;4.60;;
69347;SDS011;56497;45.058;41.926;2022-07-11T00:27:57;12.98;;;4.50;;
69347;SDS011;56497;45.058;41.926;2022-07-11T00:28:27;13.07;;;4.70;;
69347;SDS011;56497;45.058;41.926;2022-07-11T00:28:58;12.88;;;4.30;;
69347;SDS011;56497;45.058;41.926;2022-07-11T00:29:28;10.57;;;4.13;;
69347;SDS011;56497;45.058;41.926;2022-07-11T00:29:59;10.55;;;4.07;;
69347;SDS011;56497;45.058;41.926;2022-07-11T00:30:29;10.98;;;5.00;;
69347;SDS011;56497;45.058;41.926;2022-07-11T00:30:59;11.02;;;4.53;;
69347;SDS011;56497;45.058;41.926;2022-07-11T00:31:30;13.38;;;5.10;;
69347;SDS011;56497;45.058;41.926;2022-07-11T00:32:00;10.02;;;4.50;;
69347;SDS011;56497;45.058;41.926;2022-07-11T00:32:31;9.98;;;4.55;;
69347;SDS011;56497;45.058;41.926;2022-07-11T00:33:01;13.85;;;4.70;;
69347;SDS011;56497;45.058;41.926;2022-07-11T00:33:32;14.73;;;5.78;;
69347;SDS011;56497;45.058;41.926;2022-07-11T00:34:02;13.65;;;5.53;;
69347;SDS011;56497;45.058;41.926;2022-07-11T00:34:32;12.88;;;5.00;;
69347;SDS011;56497;45.058;41.926;2022-07-11T00:35:03;11.70;;;4.90;;
69347;SDS011;56497;45.058;41.926;2022-07-11T00:35:33;14.07;;;5.45;;
69347;SDS011;56497;45.058;41.926;2022-07-11T00:36:04;13.90;;;5.35;;
69347;SDS011;56497;45.058;41.926;2022-07-11T00:36:34;10.13;;;4.90;;
69347;SDS011;56497;45.058;41.926;2022-07-11T00:37:05;10.15;;;5.47;;
69347;SDS011;56497;45.058;41.926;2022-07-11T00:37:35;11.52;;;5.20;;
69347;SDS011;56497;45.058;41.926;2022-07-11T00:38:05;13.20;;;5.70;;
69347;SDS011;56497;45.058;41.926;2022-07-11T00:38:36;11.18;;;4.90;;
69347;SDS011;56497;45.058;41.926;2022-07-11T00:39:06;11.60;;;5.35;;
69347;SDS011;56497;45.058;41.926;2022-07-11T00:39:37;12.10;;;5.00;;
69347;SDS011;56497;45.058;41.926;2022-07-11T00:40:07;13.85;;;4.95;;
69347;SDS011;56497;45.058;41.926;2022-07-11T00:40:38;11.93;;;5.10;;
69347;SDS011;56497;45.058;41.926;2022-07-11T00:41:09;11.38;;;5.40;;
69347;SDS011;56497;45.058;41.926;2022-07-11T00:41:39;11.30;;;4.95;;
69347;SDS011;56497;45.058;41.926;2022-07-11T00:42:09;14.30;;;5.57;;
69347;SDS011;56497;45.058;41.926;2022-07-11T00:42:40;10.88;;;5.30;;
69347;SDS011;56497;45.058;41.926;2022-07-11T00:43:10;10.45;;;5.45;;
69347;SDS011;56497;45.058;41.926;2022-07-11T00:43:41;10.93;;;4.82;;
69347;SDS011;56497;45.058;41.926;2022-07-11T00:44:11;12.05;;;5.53;;
69347;SDS011;56497;45.058;41.926;2022-07-11T00:44:42;10.38;;;4.85;;
69347;SDS011;56497;45.058;41.926;2022-07-11T00:45:12;12.13;;;4.93;;
69347;SDS011;56497;45.058;41.926;2022-07-11T00:45:43;11.55;;;5.53;;
69347;SDS011;56497;45.058;41.926;2022-07-11T00:46:13;9.75;;;5.00;;
69347;SDS011;56497;45.058;41.926;2022-07-11T00:46:43;12.23;;;5.20;;
69347;SDS011;56497;45.058;41.926;2022-07-11T00:47:14;11.73;;;5.28;;
69347;SDS011;56497;45.058;41.926;2022-07-11T00:47:44;16.65;;;5.18;;
69347;SDS011;56497;45.058;41.926;2022-07-11T00:48:14;11.95;;;5.30;;
69347;SDS011;56497;45.058;41.926;2022-07-11T00:48:45;12.23;;;4.95;;
69347;SDS011;56497;45.058;41.926;2022-07-11T00:49:15;12.13;;;5.10;;
69347;SDS011;56497;45.058;41.926;2022-07-11T00:49:46;11.45;;;5.03;;
69347;SDS011;56497;45.058;41.926;2022-07-11T00:50:16;11.73;;;4.95;;
69347;SDS011;56497;45.058;41.926;2022-07-11T00:50:46;11.55;;;5.10;;
69347;SDS011;56497;45.058;41.926;2022-07-11T00:51:20;13.60;;;5.00;;
69347;SDS011;56497;45.058;41.926;2022-07-11T00:51:51;10.30;;;5.10;;
69347;SDS011;56497;45.058;41.926;2022-07-11T00:52:22;10.88;;;5.18;;
69347;SDS011;56497;45.058;41.926;2022-07-11T00:52:52;12.35;;;5.07;;
69347;SDS011;56497;45.058;41.926;2022-07-11T00:53:25;11.25;;;4.88;;
69347;SDS011;56497;45.058;41.926;2022-07-11T00:53:57;13.85;;;5.45;;
69347;SDS011;56497;45.058;41.926;2022-07-11T00:54:28;12.32;;;5.07;;
69347;SDS011;56497;45.058;41.926;2022-07-11T00:54:59;10.80;;;4.78;;
69347;SDS011;56497;45.058;41.926;2022-07-11T00:55:30;10.88;;;5.25;;
69347;SDS011;56497;45.058;41.926;2022-07-11T00:56:01;12.50;;;5.28;;
69347;SDS011;56497;45.058;41.926;2022-07-11T00:56:32;11.40;;;5.07;;
69347;SDS011;56497;45.058;41.926;2022-07-11T00:57:02;9.52;;;5.10;;
69347;SDS011;56497;45.058;41.926;2022-07-11T00:57:33;15.30;;;5.03;;
69347;SDS011;56497;45.058;41.926;2022-07-11T00:58:04;9.52;;;4.93;;
69347;SDS011;56497;45.058;41.926;2022-07-11T00:58:35;10.70;;;5.03;;
69347;SDS011;56497;45.058;41.926;2022-07-11T00:59:05;9.07;;;5.20;;
69347;SDS011;56497;45.058;41.926;2022-07-11T00:59:35;10.55;;;5.03;;
69347;SDS011;56497;45.058;41.926;2022-07-11T01:00:06;12.65;;;5.18;;
69347;SDS011;56497;45.058;41.926;2022-07-11T01:00:37;12.48;;;5.30;;
69347;SDS011;56497;45.058;41.926;2022-07-11T01:01:08;10.65;;;5.10;;
69347;SDS011;56497;45.058;41.926;2022-07-11T01:01:38;10.95;;;4.75;;
69347;SDS011;56497;45.058;41.926;2022-07-11T01:02:09;11.77;;;5.45;;
69347;SDS011;56497;45.058;41.926;2022-07-11T01:02:40;13.23;;;5.15;;
69347;SDS011;56497;45.058;41.926;2022-07-11T01:03:10;10.50;;;5.10;;
69347;SDS011;56497;45.058;41.926;2022-07-11T01:03:41;11.13;;;5.28;;
69347;SDS011;56497;45.058;41.926;2022-07-11T01:04:11;11.10;;;5.15;;
69347;SDS011;56497;45.058;41.926;2022-07-11T01:04:42;10.82;;;4.95;;
69347;SDS011;56497;45.058;41.926;2022-07-11T01:05:12;10.77;;;5.05;;
69347;SDS011;56497;45.058;41.926;2022-07-11T01:05:42;10.65;;;5.25;;
69347;SDS011;56497;45.058;41.926;2022-07-11T01:06:13;12.52;;;5.40;;
69347;SDS011;56497;45.058;41.926;2022-07-11T01:06:43;13.05;;;5.00;;
69347;SDS011;56497;45.058;41.926;2022-07-11T01:07:14;10.60;;;4.97;;
69347;SDS011;56497;45.058;41.926;2022-07-11T01:07:44;10.88;;;4.75;;
69347;SDS011;56497;45.058;41.926;2022-07-11T01:08:14;12.30;;;5.00;;
69347;SDS011;56497;45.058;41.926;2022-07-11T01:08:45;9.25;;;5.03;;
69347;SDS011;56497;45.058;41.926;2022-07-11T01:09:15;12.55;;;5.15;;
69347;SDS011;56497;45.058;41.926;2022-07-11T01:09:46;10.60;;;4.97;;
69347;SDS011;56497;45.058;41.926;2022-07-11T01:10:17;12.27;;;5.30;;
69347;SDS011;56497;45.058;41.926;2022-07-11T01:10:48;9.48;;;4.90;;
69347;SDS011;56497;45.058;41.926;2022-07-11T01:11:18;11.70;;;4.82;;
69347;SDS011;56497;45.058;41.926;2022-07-11T01:11:48;11.07;;;4.70;;
69347;SDS011;56497;45.058;41.926;2022-07-11T01:12:19;9.48;;;4.80;;
69347;SDS011;56497;45.058;41.926;2022-07-11T01:12:50;9.73;;;4.72;;
69347;SDS011;56497;45.058;41.926;2022-07-11T01:13:20;11.68;;;5.30;;
69347;SDS011;56497;45.058;41.926;2022-07-11T01:13:52;9.95;;;5.10;;
69347;SDS011;56497;45.058;41.926;2022-07-11T01:14:23;11.90;;;5.22;;
69347;SDS011;56497;45.058;41.926;2022-07-11T01:14:53;10.27;;;5.03;;
69347;SDS011;56497;45.058;41.926;2022-07-11T01:15:24;9.85;;;4.57;;
69347;SDS011;56497;45.058;41.926;2022-07-11T01:16:10;9.88;;;4.68;;
69347;SDS011;56497;45.058;41.926;2022-07-11T01:16:42;10.73;;;4.80;;
69347;SDS011;56497;45.058;41.926;2022-07-11T01:17:13;10.80;;;5.22;;
69347;SDS011;56497;45.058;41.926;2022-07-11T01:17:43;10.82;;;5.15;;
69347;SDS011;56497;45.058;41.926;2022-07-11T01:18:14;9.60;;;5.15;;
69347;SDS011;56497;45.058;41.926;2022-07-11T01:18:48;8.68;;;5.03;;
69347;SDS011;56497;45.058;41.926;2022-07-11T01:19:18;9.18;;;5.10;;
69347;SDS011;56497;45.058;41.926;2022-07-11T01:19:49;11.88;;;5.50;;
69347;SDS011;56497;45.058;41.926;2022-07-11T01:20:22;9.60;;;5.30;;
69347;SDS011;56497;45.058;41.926;2022-07-11T01:20:53;10.57;;;5.25;;
69347;SDS011;56497;45.058;41.926;2022-07-11T01:21:28;8.90;;;5.03;;
69347;SDS011;56497;45.058;41.926;2022-07-11T01:21:59;10.18;;;5.40;;
69347;SDS011;56497;45.058;41.926;2022-07-11T01:22:34;10.98;;;5.28;;
69347;SDS011;56497;45.058;41.926;2022-07-11T01:23:06;10.20;;;5.43;;
69347;SDS011;56497;45.058;41.926;2022-07-11T01:23:36;9.60;;;5.40;;
69347;SDS011;56497;45.058;41.926;2022-07-11T01:24:07;10.95;;;5.53;;
69347;SDS011;56497;45.058;41.926;2022-07-11T01:24:38;8.75;;;5.30;;
69347;SDS011;56497;45.058;41.926;2022-07-11T01:25:09;12.73;;;5.68;;
69347;SDS011;56497;45.058;41.926;2022-07-11T01:25:39;11.38;;;5.63;;
69347;SDS011;56497;45.058;41.926;2022-07-11T01:26:10;10.68;;;5.30;;
69347;SDS011;56497;45.058;41.926;2022-07-11T01:26:40;10.20;;;5.57;;
69347;SDS011;56497;45.058;41.926;2022-07-11T01:27:12;10.93;;;5.50;;
69347;SDS011;56497;45.058;41.926;2022-07-11T01:27:43;12.13;;;5.65;;
69347;SDS011;56497;45.058;41.926;2022-07-11T01:28:13;10.02;;;5.75;;
69347;SDS011;56497;45.058;41.926;2022-07-11T01:28:44;10.70;;;5.50;;
69347;SDS011;56497;45.058;41.926;2022-07-11T01:29:15;10.95;;;5.60;;
69347;SDS011;56497;45.058;41.926;2022-07-11T01:29:45;10.55;;;5.80;;
69347;SDS011;56497;45.058;41.926;2022-07-11T01:30:15;9.40;;;5.30;;
69347;SDS011;56497;45.058;41.926;2022-07-11T01:30:46;11.02;;;5.65;;
69347;SDS011;56497;45.058;41.926;2022-07-11T01:31:16;10.93;;;5.85;;
69347;SDS011;56497;45.058;41.926;2022-07-11T01:31:47;11.15;;;5.75;;
69347;SDS011;56497;45.058;41.926;2022-07-11T01:32:18;10.25;;;5.55;;
69347;SDS011;56497;45.058;41.926;2022-07-11T01:32:52;9.73;;;5.72;;
69347;SDS011;56497;45.058;41.926;2022-07-11T01:33:22;10.38;;;5.40;;
69347;SDS011;56497;45.058;41.926;2022-07-11T01:33:52;10.50;;;5.63;;
69347;SDS011;56497;45.058;41.926;2022-07-11T01:34:23;10.07;;;5.70;;
69347;SDS011;56497;45.058;41.926;2022-07-11T01:34:53;9.88;;;5.65;;
69347;SDS011;56497;45.058;41.926;2022-07-11T01:35:24;9.90;;;5.25;;
69347;SDS011;56497;45.058;41.926;2022-07-11T01:35:54;12.20;;;5.95;;
69347;SDS011;56497;45.058;41.926;2022-07-11T01:36:24;12.60;;;5.85;;
69347;SDS011;56497;45.058;41.926;2022-07-11T01:36:55;9.30;;;5.35;;
69347;SDS011;56497;45.058;41.926;2022-07-11T01:37:25;14.35;;;5.78;;
69347;SDS011;56497;45.058;41.926;2022-07-11T01:37:56;10.98;;;5.72;;
69347;SDS011;56497;45.058;41.926;2022-07-11T01:38:26;10.38;;;5.65;;
69347;SDS011;56497;45.058;41.926;2022-07-11T01:38:57;10.45;;;5.90;;
69347;SDS011;56497;45.058;41.926;2022-07-11T01:39:27;10.55;;;5.80;;
69347;SDS011;56497;45.058;41.926;2022-07-11T01:40:00;10.90;;;5.72;;
69347;SDS011;56497;45.058;41.926;2022-07-11T01:40:30;10.20;;;5.90;;
69347;SDS011;56497;45.058;41.926;2022-07-11T01:41:01;12.13;;;5.40;;
69347;SDS011;56497;45.058;41.926;2022-07-11T01:41:32;9.57;;;5.22;;
69347;SDS011;56497;45.058;41.926;2022-07-11T01:42:03;9.85;;;5.63;;
69347;SDS011;56497;45.058;41.926;2022-07-11T01:42:33;9.32;;;5.30;;
69347;SDS011;56497;45.058;41.926;2022-07-11T01:43:03;10.88;;;5.60;;
69347;SDS011;56497;45.058;41.926;2022-07-11T01:43:34;9.88;;;5.30;;
69347;SDS011;56497;45.058;41.926;2022-07-11T01:44:04;10.75;;;5.82;;
69347;SDS011;56497;45.058;41.926;2022-07-11T01:44:35;9.52;;;5.90;;
69347;SDS011;56497;45.058;41.926;2022-07-11T01:45:05;11.25;;;5.80;;
69347;SDS011;56497;45.058;41.926;2022-07-11T01:45:36;10.90;;;5.97;;
69347;SDS011;56497;45.058;41.926;2022-07-11T01:46:06;11.82;;;6.00;;
69347;SDS011;56497;45.058;41.926;2022-07-11T01:46:36;11.25;;;5.90;;
69347;SDS011;56497;45.058;41.926;2022-07-11T01:47:07;9.90;;;6.00;;
69347;SDS011;56497;45.058;41.926;2022-07-11T01:47:37;14.48;;;6.15;;
69347;SDS011;56497;45.058;41.926;2022-07-11T01:48:08;9.45;;;6.05;;
69347;SDS011;56497;45.058;41.926;2022-07-11T01:48:38;10.02;;;6.00;;
69347;SDS011;56497;45.058;41.926;2022-07-11T01:49:09;10.90;;;6.25;;
69347;SDS011;56497;45.058;41.926;2022-07-11T01:49:39;11.15;;;6.15;;
69347;SDS011;56497;45.058;41.926;2022-07-11T01:50:10;10.93;;;6.40;;
69347;SDS011;56497;45.058;41.926;2022-07-11T01:50:40;11.15;;;6.25;;
69347;SDS011;56497;45.058;41.926;2022-07-11T01:51:10;10.70;;;5.55;;
69347;SDS011;56497;45.058;41.926;2022-07-11T01:51:41;12.50;;;6.32;;
69347;SDS011;56497;45.058;41.926;2022-07-11T01:52:12;12.13;;;5.70;;
69347;SDS011;56497;45.058;41.926;2022-07-11T01:52:42;10.88;;;6.03;;
69347;SDS011;56497;45.058;41.926;2022-07-11T01:53:13;14.27;;;6.38;;
69347;SDS011;56497;45.058;41.926;2022-07-11T01:53:44;10.43;;;6.07;;
69347;SDS011;56497;45.058;41.926;2022-07-11T01:54:14;12.95;;;6.30;;
69347;SDS011;56497;45.058;41.926;2022-07-11T01:54:45;12.10;;;6.35;;
69347;SDS011;56497;45.058;41.926;2022-07-11T01:55:15;12.27;;;6.28;;
69347;SDS011;56497;45.058;41.926;2022-07-11T01:55:45;10.75;;;6.30;;
69347;SDS011;56497;45.058;41.926;2022-07-11T01:56:16;11.32;;;6.03;;
69347;SDS011;56497;45.058;41.926;2022-07-11T01:56:46;12.98;;;6.07;;
69347;SDS011;56497;45.058;41.926;2022-07-11T01:57:17;10.02;;;6.30;;
69347;SDS011;56497;45.058;41.926;2022-07-11T01:57:47;12.25;;;6.35;;
69347;SDS011;56497;45.058;41.926;2022-07-11T01:58:17;12.48;;;6.57;;
69347;SDS011;56497;45.058;41.926;2022-07-11T01:58:48;11.60;;;6.20;;
69347;SDS011;56497;45.058;41.926;2022-07-11T01:59:19;11.13;;;6.20;;
69347;SDS011;56497;45.058;41.926;2022-07-11T01:59:49;13.13;;;6.68;;
69347;SDS011;56497;45.058;41.926;2022-07-11T02:00:19;10.93;;;6.55;;
69347;SDS011;56497;45.058;41.926;2022-07-11T02:00:50;10.40;;;6.30;;
69347;SDS011;56497;45.058;41.926;2022-07-11T02:01:20;12.25;;;6.47;;
69347;SDS011;56497;45.058;41.926;2022-07-11T02:01:51;11.20;;;6.70;;
69347;SDS011;56497;45.058;41.926;2022-07-11T02:02:22;12.05;;;6.72;;
69347;SDS011;56497;45.058;41.926;2022-07-11T02:02:53;10.75;;;6.60;;
69347;SDS011;56497;45.058;41.926;2022-07-11T02:03:23;13.13;;;6.80;;
69347;SDS011;56497;45.058;41.926;2022-07-11T02:03:54;10.45;;;6.55;;
69347;SDS011;56497;45.058;41.926;2022-07-11T02:04:25;10.50;;;6.43;;
69347;SDS011;56497;45.058;41.926;2022-07-11T02:04:55;10.68;;;6.80;;
69347;SDS011;56497;45.058;41.926;2022-07-11T02:05:25;13.07;;;6.57;;
69347;SDS011;56497;45.058;41.926;2022-07-11T02:05:56;11.93;;;6.80;;
69347;SDS011;56497;45.058;41.926;2022-07-11T02:06:26;12.63;;;6.85;;
69347;SDS011;56497;45.058;41.926;2022-07-11T02:06:57;12.73;;;6.82;;
69347;SDS011;56497;45.058;41.926;2022-07-11T02:07:27;11.48;;;6.75;;
69347;SDS011;56497;45.058;41.926;2022-07-11T02:08:16;10.85;;;6.85;;
69347;SDS011;56497;45.058;41.926;2022-07-11T02:08:47;15.02;;;7.30;;
69347;SDS011;56497;45.058;41.926;2022-07-11T02:09:18;11.20;;;6.80;;
69347;SDS011;56497;45.058;41.926;2022-07-11T02:09:48;13.50;;;6.57;;
69347;SDS011;56497;45.058;41.926;2022-07-11T02:10:19;11.77;;;6.68;;
69347;SDS011;56497;45.058;41.926;2022-07-11T02:10:50;13.15;;;6.60;;
69347;SDS011;56497;45.058;41.926;2022-07-11T02:11:20;11.38;;;6.72;;
69347;SDS011;56497;45.058;41.926;2022-07-11T02:11:51;11.13;;;6.57;;
69347;SDS011;56497;45.058;41.926;2022-07-11T02:12:21;12.35;;;6.80;;
69347;SDS011;56497;45.058;41.926;2022-07-11T02:12:51;11.20;;;6.47;;
69347;SDS011;56497;45.058;41.926;2022-07-11T02:13:22;11.10;;;6.55;;
69347;SDS011;56497;45.058;41.926;2022-07-11T02:13:55;13.40;;;6.70;;
69347;SDS011;56497;45.058;41.926;2022-07-11T02:14:26;10.68;;;6.65;;
69347;SDS011;56497;45.058;41.926;2022-07-11T02:14:57;10.82;;;6.88;;
69347;SDS011;56497;45.058;41.926;2022-07-11T02:15:28;13.85;;;6.70;;
69347;SDS011;56497;45.058;41.926;2022-07-11T02:15:58;13.48;;;6.90;;
69347;SDS011;56497;45.058;41.926;2022-07-11T02:16:29;11.77;;;6.65;;
69347;SDS011;56497;45.058;41.926;2022-07-11T02:16:59;11.65;;;6.60;;
69347;SDS011;56497;45.058;41.926;2022-07-11T02:17:29;11.82;;;6.88;;
69347;SDS011;56497;45.058;41.926;2022-07-11T02:18:00;13.55;;;6.85;;
69347;SDS011;56497;45.058;41.926;2022-07-11T02:18:30;11.15;;;6.80;;
69347;SDS011;56497;45.058;41.926;2022-07-11T02:19:03;10.50;;;6.47;;
69347;SDS011;56497;45.058;41.926;2022-07-11T02:19:34;12.88;;;6.60;;
69347;SDS011;56497;45.058;41.926;2022-07-11T02:20:04;12.60;;;6.55;;
69347;SDS011;56497;45.058;41.926;2022-07-11T02:20:35;11.23;;;6.43;;
69347;SDS011;56497;45.058;41.926;2022-07-11T02:21:06;13.57;;;6.80;;
69347;SDS011;56497;45.058;41.926;2022-07-11T02:21:36;11.68;;;6.47;;
69347;SDS011;56497;45.058;41.926;2022-07-11T02:22:07;11.18;;;6.78;;
69347;SDS011;56497;45.058;41.926;2022-07-11T02:22:37;10.43;;;6.70;;
69347;SDS011;56497;45.058;41.926;2022-07-11T02:23:08;11.00;;;6.78;;
69347;SDS011;56497;45.058;41.926;2022-07-11T02:23:38;13.43;;;6.90;;
69347;SDS011;56497;45.058;41.926;2022-07-11T02:24:09;13.18;;;6.82;;
69347;SDS011;56497;45.058;41.926;2022-07-11T02:24:40;14.55;;;6.22;;
69347;SDS011;56497;45.058;41.926;2022-07-11T02:25:10;13.02;;;6.93;;
69347;SDS011;56497;45.058;41.926;2022-07-11T02:25:41;13.25;;;6.50;;
69347;SDS011;56497;45.058;41.926;2022-07-11T02:26:11;12.38;;;6.53;;
69347;SDS011;56497;45.058;41.926;2022-07-11T02:26:41;13.50;;;6.93;;
69347;SDS011;56497;45.058;41.926;2022-07-11T02:27:12;14.25;;;6.35;;
69347;SDS011;56497;45.058;41.926;2022-07-11T02:27:42;11.35;;;6.75;;
69347;SDS011;56497;45.058;41.926;2022-07-11T02:28:13;13.65;;;6.90;;
69347;SDS011;56497;45.058;41.926;2022-07-11T02:28:43;11.05;;;6.35;;
69347;SDS011;56497;45.058;41.926;2022-07-11T02:29:14;10.40;;;6.30;;
69347;SDS011;56497;45.058;41.926;2022-07-11T02:29:44;11.25;;;6.88;;
69347;SDS011;56497;45.058;41.926;2022-07-11T02:30:15;14.93;;;6.60;;
69347;SDS011;56497;45.058;41.926;2022-07-11T02:30:45;11.88;;;6.95;;
69347;SDS011;56497;45.058;41.926;2022-07-11T02:31:16;10.88;;;6.65;;
69347;SDS011;56497;45.058;41.926;2022-07-11T02:31:46;12.45;;;7.00;;
69347;SDS011;56497;45.058;41.926;2022-07-11T02:32:17;13.55;;;7.85;;
69347;SDS011;56497;45.058;41.926;2022-07-11T02:32:48;12.02;;;7.05;;
69347;SDS011;56497;45.058;41.926;2022-07-11T02:33:18;10.45;;;6.10;;
69347;SDS011;56497;45.058;41.926;2022-07-11T02:33:48;12.40;;;6.90;;
69347;SDS011;56497;45.058;41.926;2022-07-11T02:34:19;10.88;;;6.70;;
69347;SDS011;56497;45.058;41.926;2022-07-11T02:34:49;11.15;;;6.20;;
69347;SDS011;56497;45.058;41.926;2022-07-11T02:35:20;11.45;;;6.28;;
69347;SDS011;56497;45.058;41.926;2022-07-11T02:35:50;11.85;;;6.78;;
69347;SDS011;56497;45.058;41.926;2022-07-11T02:36:20;14.30;;;7.00;;
69347;SDS011;56497;45.058;41.926;2022-07-11T02:36:51;11.57;;;6.97;;
69347;SDS011;56497;45.058;41.926;2022-07-11T02:37:21;11.45;;;6.50;;
69347;SDS011;56497;45.058;41.926;2022-07-11T02:37:52;10.75;;;6.57;;
69347;SDS011;56497;45.058;41.926;2022-07-11T02:38:22;11.05;;;6.40;;
69347;SDS011;56497;45.058;41.926;2022-07-11T02:38:52;11.57;;;6.63;;
69347;SDS011;56497;45.058;41.926;2022-07-11T02:39:23;11.35;;;6.65;;
69347;SDS011;56497;45.058;41.926;2022-07-11T02:39:54;12.18;;;6.65;;
69347;SDS011;56497;45.058;41.926;2022-07-11T02:40:24;11.60;;;6.43;;
69347;SDS011;56497;45.058;41.926;2022-07-11T02:40:55;11.88;;;6.72;;
69347;SDS011;56497;45.058;41.926;2022-07-11T02:41:25;12.13;;;6.75;;
69347;SDS011;56497;45.058;41.926;2022-07-11T02:41:56;9.57;;;6.15;;
69347;SDS011;56497;45.058;41.926;2022-07-11T02:42:26;10.95;;;6.45;;
69347;SDS011;56497;45.058;41.926;2022-07-11T02:42:57;11.68;;;6.30;;
69347;SDS011;56497;45.058;41.926;2022-07-11T02:43:27;12.25;;;6.47;;
69347;SDS011;56497;45.058;41.926;2022-07-11T02:43:58;10.57;;;6.40;;
69347;SDS011;56497;45.058;41.926;2022-07-11T02:44:28;10.85;;;6.28;;
69347;SDS011;56497;45.058;41.926;2022-07-11T02:44:58;9.80;;;6.18;;
69347;SDS011;56497;45.058;41.926;2022-07-11T02:45:29;13.35;;;6.45;;
69347;SDS011;56497;45.058;41.926;2022-07-11T02:45:59;12.82;;;6.45;;
69347;SDS011;56497;45.058;41.926;2022-07-11T02:46:30;11.40;;;6.50;;
69347;SDS011;56497;45.058;41.926;2022-07-11T02:47:00;10.80;;;6.40;;
69347;SDS011;56497;45.058;41.926;2022-07-11T02:47:31;9.75;;;6.68;;
69347;SDS011;56497;45.058;41.926;2022-07-11T02:48:01;12.30;;;6.60;;
69347;SDS011;56497;45.058;41.926;2022-07-11T02:48:31;12.73;;;6.40;;
69347;SDS011;56497;45.058;41.926;2022-07-11T02:49:02;12.27;;;6.50;;
69347;SDS011;56497;45.058;41.926;2022-07-11T02:49:32;10.57;;;6.65;;
69347;SDS011;56497;45.058;41.926;2022-07-11T02:50:03;11.60;;;6.53;;
69347;SDS011;56497;45.058;41.926;2022-07-11T02:50:33;12.73;;;6.53;;
69347;SDS011;56497;45.058;41.926;2022-07-11T02:51:04;11.00;;;6.53;;
69347;SDS011;56497;45.058;41.926;2022-07-11T02:51:34;10.70;;;6.30;;
69347;SDS011;56497;45.058;41.926;2022-07-11T02:52:04;10.88;;;6.50;;
69347;SDS011;56497;45.058;41.926;2022-07-11T02:52:35;11.98;;;6.80;;
69347;SDS011;56497;45.058;41.926;2022-07-11T02:53:06;12.75;;;6.60;;
69347;SDS011;56497;45.058;41.926;2022-07-11T02:53:36;12.60;;;6.65;;
69347;SDS011;56497;45.058;41.926;2022-07-11T02:54:07;11.90;;;6.82;;
69347;SDS011;56497;45.058;41.926;2022-07-11T02:54:37;10.98;;;6.53;;
69347;SDS011;56497;45.058;41.926;2022-07-11T02:55:08;11.77;;;6.38;;
69347;SDS011;56497;45.058;41.926;2022-07-11T02:55:39;11.65;;;6.70;;
69347;SDS011;56497;45.058;41.926;2022-07-11T02:56:09;12.23;;;6.30;;
69347;SDS011;56497;45.058;41.926;2022-07-11T02:56:39;11.30;;;6.63;;
69347;SDS011;56497;45.058;41.926;2022-07-11T02:57:10;11.57;;;6.60;;
69347;SDS011;56497;45.058;41.926;2022-07-11T02:57:40;12.43;;;6.88;;
69347;SDS011;56497;45.058;41.926;2022-07-11T02:58:11;13.30;;;6.72;;
69347;SDS011;56497;45.058;41.926;2022-07-11T02:58:41;13.50;;;6.80;;
69347;SDS011;56497;45.058;41.926;2022-07-11T02:59:11;11.95;;;6.97;;
69347;SDS011;56497;45.058;41.926;2022-07-11T02:59:42;12.88;;;7.03;;
69347;SDS011;56497;45.058;41.926;2022-07-11T03:00:13;12.77;;;6.70;;